Time;durP1;ratioP1;P1;durP2;ratioP2;P2;SDS_P1;SDS_P2;PMS_P1;PMS_P2;Temp;Humidity;BMP_temperature;BMP_pressure;BME280_temperature;BME280_humidity;BME280_pressure;Samples;Min_cycle;Max_cycle;Signal;HPM_P1;HPM_P2
2022/10/22 00:02:22;;;;;;;2.20;1.90;;;14.50;99.90;;;;;;5000115;28;20536;-83
2022/10/22 00:04:50;;;;;;;3.47;2.10;;;14.50;99.90;;;;;;4998409;28;20483;-83
2022/10/22 00:07:18;;;;;;;3.20;1.83;;;14.50;99.90;;;;;;4998908;28;20439;-83
2022/10/22 00:09:45;;;;;;;4.27;1.60;;;14.50;99.90;;;;;;4998470;28;20449;-84
2022/10/22 00:12:14;;;;;;;3.17;1.77;;;14.50;99.90;;;;;;5012722;28;20426;-83
2022/10/22 00:14:41;;;;;;;1.67;1.10;;;14.50;99.90;;;;;;5018898;28;20538;-84
2022/10/22 00:17:08;;;;;;;2.27;1.20;;;14.40;99.90;;;;;;5017988;28;20508;-84
2022/10/22 00:19:35;;;;;;;5.17;1.30;;;14.40;99.90;;;;;;5006893;28;20451;-84
2022/10/22 00:22:04;;;;;;;2.90;1.33;;;14.30;99.90;;;;;;5007458;28;20443;-84
2022/10/22 00:24:31;;;;;;;2.00;1.30;;;14.30;99.90;;;;;;5013099;28;20529;-83
2022/10/22 00:26:58;;;;;;;1.93;1.03;;;14.30;99.90;;;;;;5015946;28;20543;-83
2022/10/22 00:29:27;;;;;;;2.83;1.60;;;14.30;99.90;;;;;;5010840;28;20535;-84
2022/10/22 00:31:53;;;;;;;2.53;1.10;;;14.20;99.90;;;;;;5003005;28;20805;-84
2022/10/22 00:34:21;;;;;;;1.67;0.90;;;14.20;99.90;;;;;;5002041;28;20948;-84
2022/10/22 00:36:49;;;;;;;2.43;1.07;;;14.20;99.90;;;;;;4998580;28;20475;-83
2022/10/22 00:39:16;;;;;;;2.43;1.20;;;14.20;99.90;;;;;;5006604;28;20455;-84
2022/10/22 00:41:44;;;;;;;4.70;1.57;;;14.20;99.90;;;;;;5005991;28;20443;-83
2022/10/22 00:44:44;;;;;;;2.43;0.93;;;14.20;99.90;;;;;;4998047;28;20447;-84
2022/10/22 00:47:12;;;;;;;1.60;0.80;;;14.30;99.90;;;;;;4997532;28;20800;-84
2022/10/22 00:49:39;;;;;;;2.70;0.90;;;14.20;99.90;;;;;;4998493;28;20452;-83
2022/10/22 00:52:06;;;;;;;1.63;1.07;;;14.20;99.90;;;;;;4997173;28;20452;-84
2022/10/22 00:54:33;;;;;;;2.17;0.80;;;14.20;99.90;;;;;;4997580;28;20966;-84
2022/10/22 00:57:00;;;;;;;4.90;1.27;;;14.20;99.90;;;;;;4996758;28;20459;-84
2022/10/22 00:59:28;;;;;;;2.53;1.20;;;14.20;99.90;;;;;;4996934;28;20436;-84
2022/10/22 01:01:55;;;;;;;2.30;1.00;;;14.20;99.90;;;;;;4997276;28;20456;-84
2022/10/22 01:04:23;;;;;;;3.43;0.97;;;14.10;99.90;;;;;;4997079;28;20444;-84
2022/10/22 01:06:50;;;;;;;2.10;0.90;;;14.10;99.90;;;;;;4996111;28;20478;-83
2022/10/22 01:09:22;;;;;;;1.93;1.30;;;14.10;99.90;;;;;;4996610;28;20494;-84
2022/10/22 01:11:59;;;;;;;1.67;0.87;;;14.10;99.90;;;;;;4996936;28;20447;-84
2022/10/22 01:14:34;;;;;;;2.27;1.00;;;14.10;99.90;;;;;;4996974;28;20447;-84
2022/10/22 01:17:06;;;;;;;1.77;1.00;;;14.10;99.90;;;;;;4996310;28;20471;-84
2022/10/22 01:19:49;;;;;;;1.63;1.07;;;14.10;99.90;;;;;;4999073;28;20454;-84
2022/10/22 01:22:22;;;;;;;1.90;1.20;;;14.10;99.90;;;;;;5004625;28;20880;-84
2022/10/22 01:25:03;;;;;;;2.10;0.90;;;14.10;99.90;;;;;;4998128;28;20815;-84
2022/10/22 01:27:39;;;;;;;2.20;1.00;;;14.10;99.90;;;;;;4996985;28;20461;-84
2022/10/22 01:30:10;;;;;;;3.77;1.33;;;14.20;99.90;;;;;;4997660;28;20463;-84
2022/10/22 01:32:42;;;;;;;1.80;1.33;;;14.20;99.90;;;;;;5011119;28;20448;-84
2022/10/22 01:35:12;;;;;;;3.27;1.20;;;14.20;99.90;;;;;;5013203;28;20469;-84
2022/10/22 01:37:45;;;;;;;2.27;0.80;;;14.20;99.90;;;;;;5009611;28;20428;-84
2022/10/22 01:40:15;;;;;;;3.20;1.47;;;14.10;99.90;;;;;;4995919;28;20455;-84
2022/10/22 01:42:42;;;;;;;3.93;1.50;;;14.10;99.90;;;;;;4995966;28;20440;-84
2022/10/22 01:45:13;;;;;;;2.60;1.03;;;14.10;99.90;;;;;;4995516;28;20514;-84
2022/10/22 01:47:51;;;;;;;2.70;1.40;;;14.10;99.90;;;;;;4994484;28;20455;-84
2022/10/22 01:50:34;;;;;;;2.43;1.37;;;14.10;99.90;;;;;;4995918;28;20451;-84
2022/10/22 01:53:21;;;;;;;3.10;0.90;;;14.10;99.90;;;;;;4995524;28;20455;-84
2022/10/22 01:55:58;;;;;;;2.10;1.10;;;14.10;99.90;;;;;;5000961;28;20460;-84
2022/10/22 01:58:39;;;;;;;3.50;1.07;;;14.10;99.90;;;;;;4998495;28;20451;-84
2022/10/22 02:01:13;;;;;;;1.60;1.10;;;14.20;99.90;;;;;;4995513;28;20459;-84
2022/10/22 02:03:46;;;;;;;2.83;1.50;;;14.20;99.90;;;;;;5000285;28;20627;-84
2022/10/22 02:06:18;;;;;;;1.73;1.27;;;14.20;99.90;;;;;;5006645;28;20486;-83
2022/10/22 02:08:45;;;;;;;2.70;0.90;;;14.10;99.90;;;;;;5016987;28;20444;-84
2022/10/22 02:11:13;;;;;;;1.57;1.30;;;14.10;99.90;;;;;;4997668;28;20439;-84
2022/10/22 02:13:43;;;;;;;1.60;1.17;;;14.10;99.90;;;;;;4995890;28;20452;-84
2022/10/22 02:16:15;;;;;;;2.83;1.23;;;14.20;99.90;;;;;;5007510;28;20443;-84
2022/10/22 02:18:45;;;;;;;2.43;1.47;;;14.20;99.90;;;;;;5007634;28;20450;-84
2022/10/22 02:21:12;;;;;;;5.77;1.50;;;14.20;99.90;;;;;;4996361;28;20447;-84
2022/10/22 02:23:39;;;;;;;2.17;1.30;;;14.10;99.90;;;;;;4995067;28;20447;-84
2022/10/22 02:26:14;;;;;;;3.47;1.53;;;14.10;99.90;;;;;;4996212;28;20488;-84
2022/10/22 02:28:49;;;;;;;1.87;1.40;;;14.00;99.90;;;;;;4998321;28;20450;-84
2022/10/22 02:31:23;;;;;;;2.60;1.30;;;14.10;99.90;;;;;;5012048;28;20665;-84
2022/10/22 02:33:54;;;;;;;2.80;0.90;;;14.10;99.90;;;;;;4999446;28;20447;-83
2022/10/22 02:36:22;;;;;;;1.77;1.10;;;14.10;99.90;;;;;;5000312;28;20468;-84
2022/10/22 02:38:50;;;;;;;2.30;1.17;;;14.20;99.90;;;;;;5002472;28;20463;-84
2022/10/22 02:41:18;;;;;;;2.27;0.90;;;14.20;99.90;;;;;;5007759;28;20443;-84
2022/10/22 02:43:49;;;;;;;2.00;1.30;;;14.20;99.90;;;;;;5002147;28;20448;-84
2022/10/22 02:46:18;;;;;;;2.90;1.10;;;14.20;99.90;;;;;;4996316;28;20487;-84
2022/10/22 02:48:44;;;;;;;1.90;1.00;;;14.20;99.90;;;;;;4994863;28;20456;-84
2022/10/22 02:51:11;;;;;;;1.60;1.07;;;14.20;99.90;;;;;;4994468;28;20454;-84
2022/10/22 02:53:38;;;;;;;5.10;1.50;;;14.20;99.90;;;;;;4998366;28;20452;-84
2022/10/22 02:56:05;;;;;;;2.30;1.00;;;14.20;99.90;;;;;;5006190;28;20550;-84
2022/10/22 02:58:32;;;;;;;1.40;0.90;;;14.20;99.90;;;;;;5000931;28;20450;-84
2022/10/22 03:00:58;;;;;;;2.30;1.07;;;14.20;99.90;;;;;;4994930;28;20450;-84
2022/10/22 03:03:26;;;;;;;1.30;0.80;;;14.20;99.90;;;;;;4994736;28;20451;-84
2022/10/22 03:05:53;;;;;;;1.10;0.70;;;14.30;99.90;;;;;;4994940;28;20892;-84
2022/10/22 03:08:20;;;;;;;1.50;0.90;;;14.40;99.90;;;;;;4994601;28;20443;-84
2022/10/22 03:10:47;;;;;;;3.03;1.00;;;14.40;99.90;;;;;;4994526;28;20952;-84
2022/10/22 03:13:13;;;;;;;2.20;1.30;;;14.40;99.90;;;;;;4997764;28;20463;-84
2022/10/22 03:15:40;;;;;;;2.43;0.80;;;14.40;99.90;;;;;;5001275;28;20472;-84
2022/10/22 03:18:07;;;;;;;2.77;1.27;;;14.40;99.90;;;;;;4994636;28;20462;-84
2022/10/22 03:20:35;;;;;;;1.67;1.00;;;14.40;99.90;;;;;;4994090;28;20983;-83
2022/10/22 03:23:02;;;;;;;2.83;0.97;;;14.50;99.90;;;;;;4995026;28;20459;-84
2022/10/22 03:25:33;;;;;;;3.23;1.27;;;14.50;99.90;;;;;;4996233;28;20487;-85
2022/10/22 03:28:05;;;;;;;4.83;1.40;;;14.50;99.90;;;;;;4995807;28;20949;-84
2022/10/22 03:30:31;;;;;;;4.00;1.23;;;14.50;99.90;;;;;;4994780;28;20459;-84
2022/10/22 03:32:58;;;;;;;2.10;0.87;;;14.50;99.90;;;;;;4994565;28;20447;-84
2022/10/22 03:35:25;;;;;;;1.93;0.93;;;14.60;99.90;;;;;;4995938;28;20463;-83
2022/10/22 03:37:54;;;;;;;3.47;1.17;;;14.60;99.90;;;;;;4995451;28;20451;-83
2022/10/22 03:40:21;;;;;;;4.30;1.20;;;14.50;99.90;;;;;;4994647;28;20443;-83
2022/10/22 03:42:48;;;;;;;5.33;0.93;;;14.50;99.90;;;;;;4994900;28;20460;-84
2022/10/22 03:45:14;;;;;;;1.33;0.80;;;14.60;99.90;;;;;;5004798;28;20471;-83
2022/10/22 03:47:41;;;;;;;1.20;0.80;;;14.60;99.90;;;;;;4999605;28;20439;-84
2022/10/22 03:50:09;;;;;;;1.70;0.90;;;14.60;99.90;;;;;;4995022;28;20532;-84
2022/10/22 03:52:37;;;;;;;1.50;1.10;;;14.50;99.90;;;;;;4994588;28;20522;-85
2022/10/22 03:55:06;;;;;;;2.67;1.20;;;14.50;99.90;;;;;;4995191;28;20475;-84
2022/10/22 03:57:33;;;;;;;4.20;1.30;;;14.50;99.90;;;;;;4994955;28;20450;-84
2022/10/22 04:00:00;;;;;;;5.33;1.40;;;14.50;99.90;;;;;;4999886;28;20447;-84
2022/10/22 04:02:27;;;;;;;1.60;1.00;;;14.60;99.90;;;;;;5006588;28;20474;-84
2022/10/22 04:04:53;;;;;;;2.77;1.00;;;14.50;99.90;;;;;;5012686;28;20450;-84
2022/10/22 04:07:20;;;;;;;1.10;0.70;;;14.50;99.90;;;;;;4995110;28;20483;-84
2022/10/22 04:09:47;;;;;;;1.60;0.80;;;14.50;99.90;;;;;;4994714;28;20450;-84
2022/10/22 04:12:15;;;;;;;4.00;1.43;;;14.40;99.90;;;;;;4997024;28;20461;-84
2022/10/22 04:14:41;;;;;;;2.07;1.00;;;14.50;99.90;;;;;;4998179;28;20458;-84
2022/10/22 04:17:08;;;;;;;2.30;0.83;;;14.40;99.90;;;;;;4996946;28;20439;-84
2022/10/22 04:19:35;;;;;;;4.33;0.90;;;14.50;99.90;;;;;;4997152;28;20999;-84
2022/10/22 04:22:02;;;;;;;2.10;0.80;;;14.40;99.90;;;;;;4997042;28;20466;-84
2022/10/22 04:24:30;;;;;;;1.40;0.93;;;14.50;99.90;;;;;;4998270;28;20462;-84
2022/10/22 04:26:57;;;;;;;1.60;1.27;;;14.40;99.90;;;;;;4996061;28;20493;-84
2022/10/22 04:29:25;;;;;;;1.53;1.10;;;14.30;99.90;;;;;;4996647;28;20454;-83
2022/10/22 04:31:52;;;;;;;1.97;0.63;;;14.30;99.90;;;;;;4997037;28;20952;-83
2022/10/22 04:34:19;;;;;;;2.27;1.07;;;14.20;99.90;;;;;;5001023;28;20449;-84
2022/10/22 04:36:46;;;;;;;2.63;1.10;;;14.20;99.90;;;;;;5007277;28;20471;-83
2022/10/22 04:39:12;;;;;;;1.60;1.37;;;14.20;99.90;;;;;;5013885;28;20446;-84
2022/10/22 04:41:39;;;;;;;2.83;0.90;;;14.20;99.90;;;;;;5000135;28;20438;-84
2022/10/22 04:44:07;;;;;;;1.83;1.10;;;14.20;99.90;;;;;;4997176;28;20458;-84
2022/10/22 04:46:36;;;;;;;2.13;1.00;;;14.20;99.90;;;;;;4996830;28;20498;-83
2022/10/22 04:49:03;;;;;;;2.10;1.00;;;14.30;99.90;;;;;;4996623;28;20491;-84
2022/10/22 04:51:30;;;;;;;2.57;1.00;;;14.30;99.90;;;;;;4997470;28;20502;-84
2022/10/22 04:53:57;;;;;;;2.20;0.87;;;14.40;99.90;;;;;;5006575;28;20469;-84
2022/10/22 04:56:26;;;;;;;1.40;0.90;;;14.40;99.90;;;;;;5001276;28;20475;-84
2022/10/22 04:58:55;;;;;;;2.40;0.80;;;14.40;99.90;;;;;;5004874;28;20451;-83
2022/10/22 05:01:24;;;;;;;1.20;0.77;;;14.40;99.90;;;;;;5012980;28;20428;-83
2022/10/22 05:03:53;;;;;;;1.30;0.60;;;14.40;99.90;;;;;;5003896;28;20441;-84
2022/10/22 05:06:21;;;;;;;1.57;0.77;;;14.40;99.90;;;;;;4997509;28;20487;-84
2022/10/22 05:08:51;;;;;;;1.50;0.70;;;14.50;99.90;;;;;;5000430;28;20848;-84
2022/10/22 05:11:20;;;;;;;1.83;1.00;;;14.60;99.90;;;;;;5000249;28;20870;-83
2022/10/22 05:13:47;;;;;;;2.80;1.17;;;14.60;99.90;;;;;;4999609;28;20452;-83
2022/10/22 05:16:14;;;;;;;1.20;0.80;;;14.50;99.90;;;;;;4996778;28;20474;-83
2022/10/22 05:18:43;;;;;;;1.63;0.90;;;14.60;99.90;;;;;;4996705;28;20452;-83
2022/10/22 05:21:13;;;;;;;1.50;0.83;;;14.70;99.90;;;;;;4997642;28;20455;-83
2022/10/22 05:23:40;;;;;;;2.30;0.83;;;14.70;99.90;;;;;;4995685;28;20457;-82
2022/10/22 05:26:09;;;;;;;1.33;0.70;;;14.70;99.90;;;;;;4999626;28;20490;-82
2022/10/22 05:28:37;;;;;;;1.50;0.90;;;14.80;99.90;;;;;;5018930;28;20451;-83
2022/10/22 05:31:06;;;;;;;2.50;1.00;;;14.80;99.90;;;;;;5002809;28;20455;-82
2022/10/22 05:33:33;;;;;;;1.20;0.60;;;14.80;99.90;;;;;;4997536;28;20953;-83
2022/10/22 05:36:00;;;;;;;1.33;0.77;;;14.90;99.90;;;;;;4996432;28;20490;-83
2022/10/22 05:38:28;;;;;;;3.53;1.13;;;14.90;99.90;;;;;;4996466;28;20459;-83
2022/10/22 05:41:03;;;;;;;1.83;0.53;;;14.90;99.90;;;;;;4997930;28;20447;-82
2022/10/22 05:43:31;;;;;;;2.87;1.00;;;14.90;99.90;;;;;;4998594;28;20455;-84
2022/10/22 05:46:02;;;;;;;2.90;1.10;;;14.90;99.90;;;;;;4996314;28;20510;-85
2022/10/22 05:48:29;;;;;;;1.47;0.90;;;14.90;99.90;;;;;;4996145;28;20455;-83
2022/10/22 05:50:56;;;;;;;1.83;0.80;;;14.80;99.90;;;;;;4996480;28;20455;-83
2022/10/22 05:53:23;;;;;;;1.00;0.70;;;14.90;99.90;;;;;;5004031;28;20447;-83
2022/10/22 05:55:51;;;;;;;2.10;1.20;;;14.80;99.90;;;;;;5008536;28;20987;-83
2022/10/22 05:58:18;;;;;;;1.20;1.00;;;14.90;99.90;;;;;;5003671;28;20451;-83
2022/10/22 06:00:44;;;;;;;3.87;1.73;;;14.90;99.90;;;;;;5000239;28;20466;-84
2022/10/22 06:03:11;;;;;;;1.90;1.10;;;14.90;99.90;;;;;;4997695;28;20447;-84
2022/10/22 06:05:38;;;;;;;0.90;0.60;;;14.90;99.90;;;;;;4997262;28;20486;-83
2022/10/22 06:08:05;;;;;;;1.77;0.87;;;14.90;99.90;;;;;;4996390;28;20483;-83
2022/10/22 06:10:32;;;;;;;2.17;0.90;;;14.80;99.90;;;;;;5009634;28;20458;-83
2022/10/22 06:13:02;;;;;;;2.43;1.17;;;14.90;99.90;;;;;;5001623;28;20470;-83
2022/10/22 06:15:28;;;;;;;3.03;1.10;;;14.90;99.90;;;;;;4996943;28;20522;-83
2022/10/22 06:17:55;;;;;;;1.73;1.10;;;14.80;99.90;;;;;;4996823;28;20948;-83
2022/10/22 06:20:22;;;;;;;1.70;1.00;;;14.80;99.90;;;;;;4996482;28;20447;-83
2022/10/22 06:22:49;;;;;;;5.73;1.23;;;14.80;99.90;;;;;;4996175;28;20451;-84
2022/10/22 06:25:15;;;;;;;1.33;0.83;;;14.90;99.90;;;;;;5000848;28;20921;-83
2022/10/22 06:27:42;;;;;;;2.60;1.00;;;14.90;99.90;;;;;;5005358;28;20498;-84
2022/10/22 06:30:11;;;;;;;2.97;1.30;;;14.90;99.90;;;;;;5012793;28;20448;-83
2022/10/22 06:32:38;;;;;;;2.97;1.33;;;14.90;99.90;;;;;;5009200;28;20459;-84
2022/10/22 06:35:05;;;;;;;2.40;1.47;;;15.00;99.90;;;;;;4996282;28;20459;-83
2022/10/22 06:37:32;;;;;;;2.13;1.27;;;15.00;99.90;;;;;;4995917;28;20456;-83
2022/10/22 06:39:59;;;;;;;2.60;1.07;;;15.00;99.90;;;;;;4996522;28;20456;-84
2022/10/22 06:42:26;;;;;;;4.73;1.27;;;15.00;99.90;;;;;;4998313;28;20458;-84
2022/10/22 06:44:53;;;;;;;4.20;1.40;;;15.10;99.90;;;;;;5015185;28;20443;-83
2022/10/22 06:47:21;;;;;;;2.57;1.20;;;15.00;99.90;;;;;;5001024;28;20487;-85
2022/10/22 06:49:49;;;;;;;3.50;1.37;;;15.10;99.90;;;;;;4997320;28;20447;-84
2022/10/22 06:52:17;;;;;;;2.47;1.03;;;15.10;99.90;;;;;;5003367;28;20451;-84
2022/10/22 06:54:43;;;;;;;2.03;1.37;;;15.10;99.90;;;;;;5009422;28;20444;-83
2022/10/22 06:57:10;;;;;;;2.90;1.90;;;15.10;99.90;;;;;;4997102;28;20439;-83
2022/10/22 06:59:37;;;;;;;3.73;1.43;;;15.20;99.90;;;;;;4996499;28;20460;-84
2022/10/22 07:02:04;;;;;;;3.90;1.80;;;15.20;99.90;;;;;;4995362;28;20455;-84
2022/10/22 07:04:32;;;;;;;2.37;1.10;;;15.10;99.90;;;;;;4995892;28;20455;-84
2022/10/22 07:06:58;;;;;;;2.73;1.43;;;15.20;99.90;;;;;;4993875;28;20491;-83
2022/10/22 07:09:25;;;;;;;2.10;1.10;;;15.20;99.90;;;;;;4994620;28;20446;-84
2022/10/22 07:11:52;;;;;;;2.70;1.20;;;15.20;99.90;;;;;;4994313;28;20452;-84
2022/10/22 07:14:19;;;;;;;4.93;1.27;;;15.30;99.90;;;;;;4994473;28;20452;-84
2022/10/22 07:16:45;;;;;;;3.33;0.90;;;15.40;99.90;;;;;;4994677;28;20475;-83
2022/10/22 07:19:13;;;;;;;3.93;1.50;;;15.40;99.90;;;;;;5008543;28;20458;-83
2022/10/22 07:21:41;;;;;;;2.27;1.30;;;15.50;99.90;;;;;;5010658;28;20439;-84
2022/10/22 07:24:09;;;;;;;2.23;1.20;;;15.50;99.90;;;;;;4995488;28;20447;-84
2022/10/22 07:26:35;;;;;;;2.23;0.97;;;15.60;99.90;;;;;;4996588;28;20483;-84
2022/10/22 07:29:03;;;;;;;2.17;1.17;;;15.60;99.90;;;;;;4997375;28;20451;-84
2022/10/22 07:31:30;;;;;;;3.10;1.33;;;15.80;99.90;;;;;;4996128;28;20452;-83
2022/10/22 07:33:57;;;;;;;1.53;1.30;;;15.80;99.90;;;;;;4995495;28;20751;-84
2022/10/22 07:36:24;;;;;;;2.60;1.50;;;15.80;99.90;;;;;;4995326;28;20479;-84
2022/10/22 07:38:56;;;;;;;4.13;1.30;;;15.80;99.90;;;;;;4994157;28;20829;-84
2022/10/22 07:41:24;;;;;;;1.73;1.47;;;15.80;99.90;;;;;;4999683;28;20453;-84
2022/10/22 07:43:51;;;;;;;2.90;1.30;;;15.80;99.90;;;;;;5003272;28;20445;-83
2022/10/22 07:46:18;;;;;;;4.10;1.43;;;15.80;99.90;;;;;;4999943;28;21019;-83
2022/10/22 07:48:45;;;;;;;1.40;0.80;;;15.90;99.90;;;;;;4999797;28;20518;-84
2022/10/22 07:51:12;;;;;;;3.40;1.30;;;15.90;99.90;;;;;;4999875;28;20463;-84
2022/10/22 07:53:38;;;;;;;3.03;1.37;;;15.90;99.90;;;;;;4999153;28;20462;-84
2022/10/22 07:56:07;;;;;;;1.97;1.30;;;16.00;99.90;;;;;;4997164;28;20474;-85
2022/10/22 07:58:35;;;;;;;3.37;1.27;;;16.00;99.90;;;;;;4997782;28;20443;-84
2022/10/22 08:01:04;;;;;;;2.33;2.13;;;16.10;99.90;;;;;;4997972;28;20455;-84
2022/10/22 08:03:31;;;;;;;2.47;2.07;;;16.10;99.90;;;;;;4997639;28;20948;-85
2022/10/22 08:05:58;;;;;;;3.20;2.10;;;16.40;99.90;;;;;;4997432;28;20489;-84
2022/10/22 08:08:25;;;;;;;2.80;2.60;;;17.10;99.90;;;;;;4996706;28;20482;-85
2022/10/22 08:10:53;;;;;;;5.33;1.60;;;17.30;99.90;;;;;;5004451;28;20443;-85
2022/10/22 08:13:22;;;;;;;3.20;1.40;;;17.20;99.90;;;;;;5004898;28;20454;-85
2022/10/22 08:15:48;;;;;;;2.77;1.30;;;17.20;99.90;;;;;;5004660;28;20474;-85
2022/10/22 08:18:15;;;;;;;2.20;1.40;;;17.30;99.90;;;;;;5008608;28;20457;-84
2022/10/22 08:20:42;;;;;;;5.30;1.73;;;17.90;99.90;;;;;;5008292;28;20766;-84
2022/10/22 08:23:09;;;;;;;3.00;1.83;;;18.30;99.90;;;;;;4999871;28;20485;-84
2022/10/22 08:25:36;;;;;;;3.33;1.67;;;18.50;99.90;;;;;;4997643;28;20475;-84
2022/10/22 08:28:03;;;;;;;3.47;2.07;;;18.60;99.90;;;;;;4999049;28;20498;-84
2022/10/22 08:30:32;;;;;;;3.77;2.07;;;18.90;99.90;;;;;;5006713;28;20443;-84
2022/10/22 08:32:59;;;;;;;3.10;2.57;;;19.00;99.90;;;;;;5003832;28;20518;-84
2022/10/22 08:35:26;;;;;;;2.43;1.70;;;18.90;99.90;;;;;;5004252;28;20464;-85
2022/10/22 08:37:53;;;;;;;3.30;1.23;;;18.80;99.90;;;;;;5005302;28;20458;-84
2022/10/22 08:40:23;;;;;;;1.93;1.27;;;18.70;99.90;;;;;;4997075;28;20452;-84
2022/10/22 08:43:46;;;;;;;2.50;1.37;;;18.60;99.90;;;;;;4996620;28;20443;-84
2022/10/22 08:46:29;;;;;;;2.03;1.37;;;18.60;99.90;;;;;;4953963;28;20470;-84
2022/10/22 08:48:58;;;;;;;2.20;2.00;;;18.60;99.90;;;;;;5015642;28;20475;-83
2022/10/22 08:51:28;;;;;;;2.80;1.50;;;18.50;99.90;;;;;;5008984;28;20439;-82
2022/10/22 08:54:12;;;;;;;2.87;1.40;;;18.60;99.90;;;;;;5000154;28;20451;-84
2022/10/22 08:56:43;;;;;;;1.60;1.30;;;19.00;99.90;;;;;;5008345;28;20557;-84
2022/10/22 08:59:14;;;;;;;2.33;1.07;;;19.60;99.90;;;;;;4997049;28;20443;-84
2022/10/22 09:01:49;;;;;;;2.00;1.13;;;19.90;99.90;;;;;;4997292;28;20434;-84
2022/10/22 09:04:24;;;;;;;2.33;1.63;;;19.80;99.90;;;;;;4996431;28;20502;-84
2022/10/22 09:06:52;;;;;;;4.93;1.50;;;19.70;99.90;;;;;;4994396;28;20482;-83
2022/10/22 09:09:20;;;;;;;1.47;1.00;;;19.70;99.90;;;;;;4998055;28;20482;-84
2022/10/22 09:11:49;;;;;;;1.50;1.03;;;20.20;99.90;;;;;;4996304;28;20474;-84
2022/10/22 09:14:19;;;;;;;2.70;1.10;;;20.40;99.90;;;;;;4996969;28;20454;-84
2022/10/22 09:17:05;;;;;;;4.07;1.07;;;20.40;99.90;;;;;;4997897;28;21003;-84
2022/10/22 09:19:39;;;;;;;2.13;1.03;;;21.10;99.90;;;;;;4996583;28;20447;-84
2022/10/22 09:22:18;;;;;;;2.67;1.10;;;21.00;99.90;;;;;;4995843;28;20450;-84
2022/10/22 09:24:47;;;;;;;2.47;1.03;;;21.40;99.90;;;;;;4996270;28;20947;-83
2022/10/22 09:27:17;;;;;;;3.87;0.90;;;21.70;99.90;;;;;;4995843;28;20489;-84
2022/10/22 09:29:46;;;;;;;2.50;1.00;;;21.60;99.90;;;;;;4982859;28;20456;-84
2022/10/22 09:32:14;;;;;;;3.17;1.00;;;21.80;99.90;;;;;;4976663;28;20463;-84
2022/10/22 09:34:43;;;;;;;2.40;0.97;;;22.40;99.90;;;;;;4991259;28;20451;-83
2022/10/22 09:37:11;;;;;;;2.00;0.90;;;23.00;99.90;;;;;;4983818;28;20961;-85
2022/10/22 09:39:40;;;;;;;1.57;1.10;;;23.20;99.90;;;;;;4978392;28;20455;-83
2022/10/22 09:42:08;;;;;;;2.67;1.00;;;23.50;99.90;;;;;;4990795;28;20463;-83
2022/10/22 09:44:36;;;;;;;2.77;1.57;;;23.20;99.90;;;;;;4985375;28;20448;-83
2022/10/22 09:47:05;;;;;;;3.03;1.20;;;22.70;99.90;;;;;;4976955;28;20857;-84
2022/10/22 09:49:36;;;;;;;3.50;1.13;;;22.50;99.90;;;;;;4976936;28;20444;-84
2022/10/22 09:52:02;;;;;;;3.23;1.13;;;22.20;99.90;;;;;;4983681;28;20460;-83
2022/10/22 09:54:39;;;;;;;3.13;1.07;;;22.30;99.90;;;;;;4979000;28;20451;-84
2022/10/22 09:57:15;;;;;;;2.30;0.80;;;21.90;99.90;;;;;;4975632;28;20473;-83
2022/10/22 09:59:43;;;;;;;1.40;1.00;;;21.60;99.90;;;;;;4977741;28;20503;-83
2022/10/22 10:02:13;;;;;;;1.60;1.10;;;22.40;99.90;;;;;;4976817;28;20460;-83
2022/10/22 10:04:46;;;;;;;2.33;0.90;;;24.40;99.90;;;;;;4981674;28;20724;-83
2022/10/22 10:07:17;;;;;;;1.87;1.03;;;27.10;96.20;;;;;;4987228;28;20462;-83
2022/10/22 10:09:44;;;;;;;1.50;0.80;;;28.70;91.20;;;;;;4977450;28;20452;-83
2022/10/22 10:12:24;;;;;;;1.73;1.30;;;29.80;83.60;;;;;;4978193;28;20953;-84
2022/10/22 10:14:58;;;;;;;2.23;1.00;;;30.90;78.90;;;;;;4975807;28;20540;-85
2022/10/22 10:17:34;;;;;;;2.50;1.03;;;31.30;74.60;;;;;;4974924;28;20453;-85
2022/10/22 10:20:21;;;;;;;1.20;0.70;;;31.90;70.00;;;;;;4975272;28;20449;-85
2022/10/22 10:22:58;;;;;;;2.30;0.80;;;32.60;67.90;;;;;;4978374;28;20449;-84
2022/10/22 10:25:42;;;;;;;2.03;0.80;;;32.60;65.50;;;;;;4977338;28;20458;-84
2022/10/22 10:28:36;;;;;;;2.47;0.83;;;33.60;62.90;;;;;;4974641;28;21108;-84
2022/10/22 10:31:14;;;;;;;1.70;1.17;;;33.90;59.80;;;;;;4975081;28;20446;-84
2022/10/22 10:33:49;;;;;;;1.50;1.17;;;33.90;60.60;;;;;;4975592;28;20457;-84
2022/10/22 10:36:25;;;;;;;2.13;0.80;;;34.00;59.90;;;;;;4975417;28;20463;-84
2022/10/22 10:38:58;;;;;;;2.13;1.10;;;35.20;56.90;;;;;;4975887;28;20497;-84
2022/10/22 10:41:33;;;;;;;1.70;1.17;;;35.00;55.70;;;;;;4977347;28;20459;-84
2022/10/22 10:44:18;;;;;;;1.40;0.90;;;32.90;57.60;;;;;;4986690;28;20830;-84
2022/10/22 10:46:54;;;;;;;2.00;0.80;;;32.10;59.40;;;;;;4990690;28;21096;-84
2022/10/22 10:49:25;;;;;;;5.63;1.20;;;33.70;57.80;;;;;;4989080;28;20464;-85
2022/10/22 10:52:03;;;;;;;1.50;1.00;;;34.50;53.70;;;;;;4976566;28;20451;-85
2022/10/22 10:54:46;;;;;;;2.40;1.20;;;35.40;51.90;;;;;;4977935;28;20457;-85
2022/10/22 10:57:24;;;;;;;1.23;0.70;;;34.50;52.50;;;;;;4976364;28;20452;-85
2022/10/22 11:00:01;;;;;;;4.50;1.20;;;33.40;53.80;;;;;;4977235;28;20558;-85
2022/10/22 11:03:11;;;;;;;3.50;1.47;;;33.30;55.10;;;;;;4993173;28;20550;-84
2022/10/22 11:05:41;;;;;;;2.70;1.60;;;33.30;54.00;;;;;;4982393;28;20535;-85
2022/10/22 11:08:15;;;;;;;3.30;2.50;;;31.70;55.80;;;;;;4974914;28;20448;-85
2022/10/22 11:10:46;;;;;;;3.20;2.57;;;31.20;57.80;;;;;;4974629;28;20459;-85
2022/10/22 11:13:20;;;;;;;3.23;1.90;;;32.90;56.30;;;;;;4974602;28;20460;-84
2022/10/22 11:15:52;;;;;;;2.67;1.30;;;33.00;54.10;;;;;;4973993;28;20856;-84
2022/10/22 11:18:24;;;;;;;1.50;0.87;;;30.90;55.90;;;;;;4974262;28;20493;-85
2022/10/22 11:21:01;;;;;;;1.47;0.97;;;29.30;59.50;;;;;;4977180;28;20460;-85
2022/10/22 11:23:37;;;;;;;1.57;0.80;;;30.30;60.00;;;;;;4984121;28;20482;-84
2022/10/22 11:26:10;;;;;;;2.40;1.13;;;32.60;57.30;;;;;;4990423;28;20846;-84
2022/10/22 11:28:42;;;;;;;1.87;1.00;;;34.10;53.50;;;;;;4979293;28;20892;-85
2022/10/22 11:31:14;;;;;;;2.13;0.90;;;35.30;50.90;;;;;;4987296;28;20538;-85
2022/10/22 11:33:48;;;;;;;2.63;1.03;;;35.90;48.80;;;;;;4984689;28;20452;-85
2022/10/22 11:36:18;;;;;;;2.30;1.13;;;34.40;50.10;;;;;;4981436;28;20464;-85
2022/10/22 11:38:46;;;;;;;4.03;1.27;;;34.90;49.40;;;;;;4981028;28;20490;-85
2022/10/22 11:41:16;;;;;;;4.33;1.37;;;36.70;47.30;;;;;;4992655;28;20459;-84
2022/10/22 11:43:58;;;;;;;3.27;1.60;;;38.00;46.10;;;;;;4978138;28;20459;-84
2022/10/22 11:46:38;;;;;;;2.17;1.50;;;38.70;43.60;;;;;;4978727;28;20474;-84
2022/10/22 11:49:17;;;;;;;1.70;1.27;;;38.20;43.70;;;;;;4977979;28;20436;-84
2022/10/22 11:51:45;;;;;;;2.33;1.17;;;39.00;42.90;;;;;;4980225;28;20452;-84
2022/10/22 11:54:41;;;;;;;1.83;1.10;;;39.10;43.00;;;;;;4977747;28;20462;-84
2022/10/22 11:57:20;;;;;;;2.20;0.90;;;39.00;41.60;;;;;;4977169;28;20482;-84
2022/10/22 11:59:56;;;;;;;3.40;1.50;;;37.50;41.90;;;;;;4984037;28;20481;-84
2022/10/22 12:02:31;;;;;;;1.93;1.17;;;38.10;42.30;;;;;;4991923;28;20680;-84
2022/10/22 12:05:34;;;;;;;1.60;1.30;;;38.70;41.80;;;;;;4999504;28;20451;-84
2022/10/22 12:08:06;;;;;;;3.70;1.00;;;37.90;42.00;;;;;;4978420;28;20434;-84
2022/10/22 12:10:49;;;;;;;2.70;1.47;;;35.10;42.90;;;;;;4978236;28;20450;-84
2022/10/22 12:13:22;;;;;;;1.57;1.13;;;32.90;46.80;;;;;;4980553;28;20460;-83
2022/10/22 12:15:52;;;;;;;2.27;1.00;;;30.70;48.80;;;;;;4982010;28;20462;-84
2022/10/22 12:18:25;;;;;;;2.63;1.43;;;29.40;51.50;;;;;;4978521;28;20492;-84
2022/10/22 12:20:53;;;;;;;1.70;1.30;;;28.70;52.60;;;;;;4977785;28;20454;-84
2022/10/22 12:23:24;;;;;;;2.30;1.10;;;27.90;54.70;;;;;;4978449;28;20473;-84
2022/10/22 12:25:52;;;;;;;3.17;1.27;;;27.20;56.30;;;;;;4991770;28;20475;-84
2022/10/22 12:28:19;;;;;;;1.63;1.00;;;26.60;57.70;;;;;;4978132;28;20443;-84
2022/10/22 12:30:47;;;;;;;3.70;2.50;;;26.20;59.40;;;;;;4977323;28;20459;-84
2022/10/22 12:33:19;;;;;;;7.77;5.27;;;25.80;61.00;;;;;;4977209;28;20464;-84
2022/10/22 12:35:47;;;;;;;5.37;4.87;;;25.40;64.30;;;;;;4976840;28;20481;-84
2022/10/22 12:38:16;;;;;;;7.33;3.83;;;25.10;65.50;;;;;;4976742;28;20492;-84
2022/10/22 12:40:45;;;;;;;5.20;3.27;;;24.80;65.10;;;;;;4977735;28;20456;-84
2022/10/22 12:43:16;;;;;;;4.93;2.30;;;24.70;66.40;;;;;;4977064;28;20467;-85
2022/10/22 12:45:45;;;;;;;4.30;2.10;;;24.50;66.60;;;;;;4977147;28;20470;-84
2022/10/22 12:48:16;;;;;;;3.70;2.23;;;24.60;66.80;;;;;;4976428;28;20443;-84
2022/10/22 12:50:47;;;;;;;3.30;1.67;;;24.70;65.80;;;;;;4976555;28;20455;-84
2022/10/22 12:53:16;;;;;;;7.97;1.57;;;24.60;65.90;;;;;;4976749;28;20462;-84
2022/10/22 12:55:46;;;;;;;1.93;0.97;;;24.80;66.00;;;;;;4976279;28;20478;-84
2022/10/22 12:58:18;;;;;;;2.03;0.93;;;24.80;65.50;;;;;;4976299;28;20482;-84
2022/10/22 13:00:46;;;;;;;1.80;1.17;;;24.60;66.60;;;;;;4976380;28;20944;-84
2022/10/22 13:03:27;;;;;;;3.30;1.30;;;24.30;67.80;;;;;;4987495;28;20451;-84
2022/10/22 13:05:53;;;;;;;3.20;1.93;;;24.20;68.40;;;;;;4989782;28;20481;-84